• Join FlightAware (Why Join?)
  • Login
  • US Flag 
09:02AM EDT


 

Airport Tracker/Info


-or-


 

Live Flight TrackerFlight Track Log ✈ SWA1718 ✈ 02-May-2013 ✈ KDAL - KAMA

Flight Track Log - Related Links

Times and Time Zones

All times are in EDT time to prevent confusion due to time zone crossing. See the SWA1718 flight status page for this flight to view local times or setup timezone preferences in your user account.

Time Position Orientation Groundspeed Altitude Reporting Facility
EDT Latitude Longitude Course Direction KTS MPH feet Rate Location/Type
03:27PM 32.8667 -96.8500 292° West 115 132 1,300  Level Dallas / Fort Worth TRACON
03:28PM 32.8833 -96.9000 292° West 178 205 3,100 2,040 Climbing Dallas / Fort Worth TRACON
03:29PM 32.9167 -96.9333 320° Northwest 225 259 5,100 2,580 Climbing Dallas / Fort Worth TRACON
03:30PM 32.9667 -97.0000 312° West 231 266 8,100 2,880 Climbing Dallas / Fort Worth TRACON
03:31PM 33.0167 -97.0500 320° Northwest 236 272 11,200 2,220 Climbing Dallas / Fort Worth TRACON
03:33PM 33.0400 -97.2450 278° West 360 414 15,000 2,400 Climbing Fort Worth Center
03:34PM 33.0464 -97.3392 275° West 311 358 18,600 2,220 Climbing Fort Worth Center
03:35PM 33.0567 -97.4433 277° West 294 338 19,500 900 Climbing Fort Worth Center
03:36PM 33.0711 -97.5622 278° West 348 400 20,500 1,080 Climbing Fort Worth Center
03:37PM 33.0856 -97.6936 278° West 397 457 21,700 1,500 Climbing Fort Worth Center
03:38PM 33.1186 -97.8253 287° West 413 475 23,600 1,800 Climbing Fort Worth Center
03:39PM 33.1619 -97.9569 291° West 425 489 25,400 1,680 Climbing Fort Worth Center
03:40PM 33.2031 -98.0864 291° West 430 495 27,000 1,920 Climbing Fort Worth Center
03:41PM 33.2442 -98.2181 291° West 425 489 29,300 2,040 Climbing Fort Worth Center
03:42PM 33.2828 -98.3428 290° West 413 475 31,100 1,500 Climbing Fort Worth Center
03:43PM 33.3175 -98.4550 290° West 406 467 32,400 1,200 Climbing Fort Worth Center
03:44PM 33.3561 -98.5772 291° West 406 467 33,500 780 Climbing Fort Worth Center
03:45PM 33.3944 -98.7022 290° West 406 467 34,000 180 Climbing Fort Worth Center
03:46PM 33.4328 -98.8272 290° West 406 467 33,900  Descending Fort Worth Center
03:47PM 33.4711 -98.9500 291° West 406 467 34,000  Climbing Fort Worth Center
03:48PM 33.5153 -99.0703 294° West 406 467 34,000  Level Fort Worth Center
03:49PM 33.5828 -99.1764 307° West 399 459 34,000  Level Fort Worth Center
03:50PM 33.6481 -99.2850 306° West 399 459 34,000  Level Fort Worth Center
03:51PM 33.7131 -99.3886 307° West 404 465 34,000  Level Fort Worth Center
03:52PM 33.7783 -99.4975 306° West 404 465 34,000  Level Fort Worth Center
03:53PM 33.8453 -99.6067 306° West 404 465 34,000  Level Fort Worth Center
03:54PM 33.9122 -99.7161 306° West 404 465 34,000  Level Fort Worth Center
03:55PM 33.9769 -99.8206 307° West 404 465 34,000  Level Fort Worth Center
03:56PM 34.0394 -99.9275 305° West 404 465 34,000  Level Fort Worth Center
03:57PM 34.1061 -100.0372 306° West 404 465 34,000 -300 Level Fort Worth Center
03:58PM 34.1728 -100.1422 308° West 404 465 33,400 -840 Descending Fort Worth Center
04:00PM 34.2831 -100.3331 305° West 404 465 31,800 -900 Descending Albuquerque Center
04:01PM 34.3500 -100.4433 306° West 407 468 30,900 -1,020 Descending Albuquerque Center
04:02PM 34.4306 -100.5767 306° West 408 470 29,700 -1,080 Descending Albuquerque Center
04:03PM 34.4969 -100.6911 305° West 413 475 28,700 -1,260 Descending Albuquerque Center
04:04PM 34.5639 -100.8019 306° West 410 472 27,200 -2,520 Descending Albuquerque Center
04:05PM 34.6311 -100.9161 306° West 414 476 23,600 -3,120 Descending Albuquerque Center
04:06PM 34.6936 -101.0253 305° West 402 463 20,900 -2,580 Descending Albuquerque Center
04:07PM 34.7539 -101.1267 306° West 376 433 18,300 -2,520 Descending Albuquerque Center
04:08PM 34.8111 -101.2250 305° West 361 415 15,800 -2,880 Descending Albuquerque Center
04:09PM 34.8786 -101.3411 305° West 351 404 12,400 -2,520 Descending Albuquerque Center
04:10PM 34.9322 -101.4331 305° West 342 394 10,700 -1,200 Descending Albuquerque Center
04:11PM 34.9769 -101.5103 305° West 306 352 10,000 -1,140 Descending Albuquerque Center
04:12PM 35.0167 -101.5803 305° West 270 311 8,400 -1,560 Descending Albuquerque Center
04:14PM 35.0578 -101.6506 306° West 258 297 6,800 -1,560 Descending Albuquerque Center
04:15PM 35.0975 -101.7206 305° West 252 290 5,300 -840 Descending Albuquerque Center
04:16PM 35.1356 -101.7667 315° West 215 247 5,200 -420 Descending Albuquerque Center
04:17PM 35.1700 -101.7664 360° North 157 181 4,500 -780 Descending Albuquerque Center
04:18PM 35.2036 -101.7347 38° Northeast 134 154 3,700 -780 Descending Albuquerque Center